Cognac-Châteaubernard

LFBG · Charente, Nouvelle-Aquitaine, 法国

METAR的历史 LFBG · Cognac-Châteaubernard

下面你可以看到过去几天的METARs。 选择年份以浏览从2007年开始的旧METAR。

2024年2月28日

时间 代码 天气 温度 能见度 天花板 METAR/SPECI
04:30
V
2 °C 10 km+ - 250° 250° 4 kt METAR LFBG 280330Z AUTO 25004KT CAVOK 02/01 Q1024
04:00
V
3 °C 10 km+ - Var Var 3 kt METAR LFBG 280300Z AUTO VRB03KT CAVOK 03/01 Q1024
03:30
V
3 °C 10 km+ - 300° 300° 7 kt METAR LFBG 280230Z AUTO 30007KT CAVOK 03/02 Q1024
03:00
V
3 °C 10 km+ - 330° 330° 4 kt METAR LFBG 280200Z AUTO 33004KT CAVOK 03/02 Q1024
02:30
V
3 °C 10 km+ - 310° 310° 3 kt METAR LFBG 280130Z AUTO 31003KT CAVOK 03/01 Q1024
02:00
V
3 °C 10 km+ - 250° 250° 3 kt METAR LFBG 280100Z AUTO 25003KT CAVOK 03/01 Q1024
01:30
V
3 °C 10 km+ - 340° 340° 3 kt METAR LFBG 280030Z AUTO 34003KT CAVOK 03/01 Q1024
01:00
V
4 °C 10 km+ - 350° 350° 4 kt METAR LFBG 280000Z AUTO 35004KT CAVOK 04/02 Q1024
00:30
V
5 °C 10 km+ - 350° 350° 6 kt METAR LFBG 272330Z AUTO 35006KT CAVOK 05/02 Q1024
00:00
V
6 °C 10 km+ - 350° 350° 7 kt METAR LFBG 272300Z AUTO 35007KT CAVOK 06/02 Q1023

2024年2月27日

时间 代码 天气 温度 能见度 天花板 METAR/SPECI
23:30
V
6 °C 10 km+ - 340° 340° 7 kt METAR LFBG 272230Z AUTO 34007KT CAVOK 06/02 Q1023
23:00
V
7 °C 10 km+ - 330° 330° 10 kt METAR LFBG 272200Z AUTO 33010KT CAVOK 07/02 Q1023 NOSIG
22:30
V
7 °C 10 km+ - 340° 340° 11 kt METAR LFBG 272130Z AUTO 34011KT CAVOK 07/03 Q1022 NOSIG
22:00
V
7 °C 10 km+ - 330° 330° 11 kt METAR LFBG 272100Z AUTO 33011KT CAVOK 07/03 Q1022 NOSIG
21:30
V
8 °C 10 km+ - 330° 330° 12 kt METAR LFBG 272030Z AUTO 33012KT CAVOK 08/03 Q1022 NOSIG
21:00
V
8 °C 10 km+ 20.000 ft 330° 330° 8 kt METAR LFBG 272000Z AUTO 33008KT 9999 SCT047 OVC200 08/04 Q1022 NOSIG
20:30
V
9 °C 10 km+ 4.900 ft 330° 330° 7 kt METAR LFBG 271930Z AUTO 33007KT 9999 OVC049 09/04 Q1022 NOSIG
20:00
V
9 °C 10 km+ 4.800 ft 330° 330° 8 kt METAR LFBG 271900Z AUTO 33008KT 9999 FEW041 OVC048 09/04 Q1022 NOSIG
19:30
V
9 °C 10 km+ 4.700 ft 340° 340° 10 kt METAR LFBG 271830Z AUTO 34010KT 9999 OVC047 09/04 Q1021 NOSIG
19:00
V
9 °C 10 km+ 3.400 ft 340° 340° 12 kt METAR LFBG 271800Z AUTO 34012KT 9999 FEW028 BKN034 BKN041 09/04 Q1021 NOSIG
18:30
V
10 °C 10 km+ 4.600 ft 340° 340° 10 kt METAR LFBG 271730Z AUTO 34010KT 9999 FEW036 OVC046 10/04 Q1020 NOSIG
18:00
V
10 °C 10 km+ - 340° 340° 11 kt METAR LFBG 271700Z AUTO 34011KT 9999 FEW033 10/05 Q1019 NOSIG
17:30
V
10 °C 10 km+ 4.400 ft 320° 320° 7 kt METAR LFBG 271630Z AUTO 32007KT 9999 FEW037 BKN044 10/05 Q1019 NOSIG
17:00
V
9 °C 10 km+ 3.300 ft 330° 330° 7 kt METAR LFBG 271600Z AUTO 33007KT 9999 BKN033 OVC039 09/05 Q1019 NOSIG
16:30
V
9 °C 10 km+ 3.300 ft 350° 350° 6 kt METAR LFBG 271530Z AUTO 35006KT 320V020 9999 FEW025 BKN033 OVC041 09/04 Q1019 NOSIG
16:00
V
9 °C 10 km+ 3.800 ft 360° 360° 9 kt METAR LFBG 271500Z AUTO 36009KT 9999 FEW022 OVC038 09/04 Q1019 NOSIG
15:30
V
9 °C 10 km+ 3.400 ft 010° 010° 10 kt METAR LFBG 271430Z AUTO 01010KT 9999 OVC034 09/04 Q1019 NOSIG
15:00
M
8 °C 10 km+ 2.400 ft 360° 360° 11 kt METAR LFBG 271400Z AUTO 36011KT 320V050 9999 OVC024 08/04 Q1019 NOSIG
14:30
M
8 °C 10 km+ 2.100 ft 350° 350° 11 kt METAR LFBG 271330Z AUTO 35011KT 9999 OVC021 08/04 Q1019 NOSIG
14:00
M
8 °C 10 km+ 2.000 ft 010° 010° 9 kt METAR LFBG 271300Z AUTO 01009KT 9999 OVC020 08/04 Q1019 NOSIG
13:30
M
8 °C 10 km+ 1.900 ft 360° 360° 12 kt METAR LFBG 271230Z AUTO 36012KT 9999 OVC019 08/04 Q1019 NOSIG
13:00
M
8 °C 10 km+ 2.000 ft 020° 020° 12 kt METAR LFBG 271200Z AUTO 02012KT 9999 OVC020 08/04 Q1019 NOSIG
12:30
M
8 °C 10 km+ 1.900 ft 360° 360° 14 kt METAR LFBG 271130Z AUTO 36014KT 9999 OVC019 08/04 Q1018 NOSIG
12:00
M
8 °C 10 km+ 1.900 ft 360° 360° 13 kt METAR LFBG 271100Z AUTO 36013KT 9999 OVC019 08/04 Q1018 NOSIG
11:30
M
8 °C 10 km+ 1.800 ft 360° 360° 12 kt METAR LFBG 271030Z AUTO 36012KT 330V030 9999 OVC018 08/04 Q1018 NOSIG
11:00
M
7 °C 10 km+ 1.700 ft 360° 360° 14 kt METAR LFBG 271000Z AUTO 36014KT 9999 OVC017 07/04 Q1018 TEMPO OVC010
10:30
M
7 °C 10 km+ 1.600 ft 360° 360° 14 kt METAR LFBG 270930Z AUTO 36014KT 9999 OVC016 07/04 Q1017 TEMPO OVC010
10:00
M
7 °C 10 km+ 1.500 ft 350° 350° 13 kt METAR LFBG 270900Z AUTO 35013KT 9999 OVC015 07/05 Q1017 BECMG OVC010
09:30
M
7 °C 10 km+ 1.600 ft 350° 350° 13 kt METAR LFBG 270830Z AUTO 35013KT 9999 OVC016 07/05 Q1017 BECMG OVC010
09:00
M
7 °C 10 km+ 1.600 ft 360° 360° 12 kt METAR LFBG 270800Z AUTO 36012KT 9999 OVC016 07/05 Q1016 BECMG OVC010
08:30
M
7 °C 10 km+ 1.500 ft 360° 360° 13 kt METAR LFBG 270730Z AUTO 36013KT 9999 OVC015 07/05 Q1016 BECMG OVC010
08:00
M
7 °C 10 km+ 1.400 ft 360° 360° 13 kt METAR LFBG 270700Z AUTO 36013KT 9999 OVC014 07/05 Q1015 NOSIG
07:30
M
7 °C 10 km+ 1.300 ft 360° 360° 13 - 24 kt METAR LFBG 270630Z AUTO 36013G24KT 9999 OVC013 07/05 Q1015 NOSIG
07:00
M
7 °C 10 km+ 1.200 ft 360° 360° 15 kt METAR LFBG 270600Z AUTO 36015KT 9999 OVC012 07/05 Q1014
06:30
M
7 °C 10 km+ 1.200 ft 360° 360° 14 kt METAR LFBG 270530Z AUTO 36014KT 9999 OVC012 07/05 Q1014
06:00
M
7 °C 10 km+ 1.100 ft 360° 360° 14 kt METAR LFBG 270500Z AUTO 36014KT 330V030 9999 OVC011 07/05 Q1013
05:30
M
7 °C 10 km+ 1.300 ft 360° 360° 13 kt METAR LFBG 270430Z AUTO 36013KT 9999 OVC013 07/05 Q1013
05:00
M
7 °C 10 km+ 1.300 ft 360° 360° 12 kt METAR LFBG 270400Z AUTO 36012KT 9999 OVC013 07/05 Q1012
04:30
M
7 °C 10 km+ 1.300 ft 360° 360° 14 kt METAR LFBG 270330Z AUTO 36014KT 9999 OVC013 07/05 Q1012
04:00
M
7 °C 10 km+ 1.100 ft 360° 360° 14 kt METAR LFBG 270300Z AUTO 36014KT 9999 BKN011 OVC016 07/05 Q1011
03:30
M
7 °C 10 km+ 1.100 ft 360° 360° 14 kt METAR LFBG 270230Z AUTO 36014KT 9999 OVC011 07/05 Q1011
03:00
M
7 °C 10 km+ 1.300 ft 360° 360° 13 kt METAR LFBG 270200Z AUTO 36013KT 9999 OVC013/// //////TCU 07/05 Q1011
02:30
M
6 °C 10 km+ 1.200 ft 360° 360° 11 kt METAR LFBG 270130Z AUTO 36011KT 9999 OVC012 06/05 Q1010
02:00
M
6 °C 10 km+ 1.100 ft 360° 360° 13 kt METAR LFBG 270100Z AUTO 36013KT 9999 OVC011 06/05 Q1010
01:30
M
6 °C 10 km+ 1.000 ft 360° 360° 13 kt METAR LFBG 270030Z AUTO 36013KT 9999 BKN010 OVC014 06/05 Q1009
01:00
M
6 °C 10 km+ 1.100 ft 350° 350° 13 kt METAR LFBG 270000Z AUTO 35013KT 9999 -RA OVC011/// //////TCU 06/05 Q1009
00:30
M
6 °C 10 km+ 1.000 ft 350° 350° 13 kt METAR LFBG 262330Z AUTO 35013KT 9999 DZ BKN010/// OVC015/// ///CB 06/05 Q1009
00:00
M
6 °C 7 km 1.000 ft 350° 350° 13 kt METAR LFBG 262300Z AUTO 35013KT 7000 -DZ OVC010/// //////TCU 06/05 Q1008

2024年2月26日

时间 代码 天气 温度 能见度 天花板 METAR/SPECI
23:30
M
6 °C 10 km+ 1.100 ft 350° 350° 14 kt METAR LFBG 262230Z AUTO 35014KT 9999 -DZ OVC011/// ///TCU 06/05 Q1008
23:00
M
6 °C 10 km+ 1.200 ft 350° 350° 16 kt METAR LFBG 262200Z AUTO 35016KT 9999 -RA OVC012/// //////TCU 06/05 Q1007
22:30
M
6 °C 10 km+ 1.400 ft 350° 350° 13 kt METAR LFBG 262130Z AUTO 35013KT 9999 -RA BKN014/// OVC020/// //////TCU 06/05 Q1007
22:00
M
6 °C 10 km+ 1.600 ft 350° 350° 17 kt METAR LFBG 262100Z AUTO 35017KT 9999 -RA OVC016/// //////TCU 06/04 Q1006
21:30
M
6 °C 10 km+ 1.500 ft 350° 350° 15 kt METAR LFBG 262030Z AUTO 35015KT 9999 -RA OVC015/// ///TCU 06/05 Q1005
21:00
M
7 °C 10 km+ 1.700 ft 350° 350° 17 kt METAR LFBG 262000Z AUTO 35017KT 9999 OVC017 07/04 Q1004
20:30
M
7 °C 10 km+ 1.700 ft 350° 350° 15 kt METAR LFBG 261930Z AUTO 35015KT 9999 OVC017 07/04 Q1004
20:00
M
7 °C 10 km+ 1.900 ft 350° 350° 17 kt METAR LFBG 261900Z AUTO 35017KT 9999 BKN019 OVC027 07/04 Q1003
19:30
M
8 °C 10 km+ 2.700 ft 350° 350° 17 kt METAR LFBG 261830Z AUTO 35017KT 9999 SCT019 OVC027 08/05 Q1002
19:00
M
8 °C 10 km+ 2.400 ft 350° 350° 18 kt METAR LFBG 261800Z AUTO 35018KT 9999 OVC024 08/05 Q1002
18:30
M
9 °C 10 km+ 2.100 ft 350° 350° 17 kt METAR LFBG 261730Z AUTO 35017KT 9999 BKN021 OVC038 09/05 Q1001
18:00
M
9 °C 10 km+ 2.400 ft 350° 350° 16 - 29 kt METAR LFBG 261700Z AUTO 35016G29KT 9999 SCT016 BKN024 OVC032 09/06 Q1000
17:30
M
9 °C 10 km+ 1.500 ft 340° 340° 17 kt METAR LFBG 261630Z AUTO 34017KT 9999 BKN015/// BKN022/// OVC034/// //////TCU 09/07 Q1000
17:00
M
10 °C 10 km+ 1.800 ft 340° 340° 16 kt METAR LFBG 261600Z AUTO 34016KT 9999 -RA SCT013/// BKN018/// BKN030/// //////TCU 10/08 Q0999 TEMPO 2000 SHRA BKN010 BKN020CB BECMG 34015G25KT
16:30
V
11 °C 10 km+ 5.200 ft 340° 340° 14 kt METAR LFBG 261530Z AUTO 34014KT 9999 FEW020/// BKN052/// BKN072/// //////CB 11/07 Q0998 TEMPO 2000 SHRA BKN010 BKN020CB BECMG 34015G25KT
16:00
M
12 °C 10 km+ 2.300 ft 340° 340° 16 kt METAR LFBG 261500Z AUTO 34016KT 310V010 9999 BKN023/// BKN030/// BKN044/// //////TCU 12/07 Q0997 TEMPO 2000 SHRA BKN010 BKN020CB BECMG 34015G25KT
15:30
V
11 °C 10 km+ 6.000 ft 350° 350° 11 kt METAR LFBG 261430Z AUTO 35011KT 9999 FEW024/// SCT039/// BKN060/// //////TCU 11/07 Q0997 TEMPO 2000 SHRA BKN010 BKN020CB BECMG 34015G25KT
15:00
M
11 °C 6 km 2.500 ft 330° 330° 15 kt METAR LFBG 261400Z AUTO 33015KT 6000 -RA FEW020 BKN025 BKN034 11/08 Q0997 TEMPO 2000 SHRA BKN010 BKN020CB BECMG 33015G25KT
14:30
V
12 °C 10 km+ - 350° 350° 11 kt METAR LFBG 261330Z AUTO 35011KT 9999 FEW022 SCT041 12/07 Q0996 TEMPO 2000 SHRA BKN010 BKN020CB BECMG 33015G25KT
14:00
M
12 °C 10 km+ 2.000 ft 310° 310° 10 kt METAR LFBG 261300Z AUTO 31010KT 290V360 9999 BKN020 12/07 Q0996 TEMPO 2000 SHRA BKN010 BKN020CB BECMG 33015G25KT
13:30
V
12 °C 10 km+ - 330° 330° 11 kt METAR LFBG 261230Z AUTO 33011KT 9999 SCT020 SCT029 12/07 Q0996 TEMPO 2000 SHRA BKN010 BKN020CB BECMG 33015G25KT
13:00
M
12 °C 10 km+ 2.800 ft 330° 330° 11 kt METAR LFBG 261200Z AUTO 33011KT 280V350 9999 SCT017 BKN028 BKN033 12/08 Q0996 TEMPO 2000 SHRA BKN010 BKN020CB BECMG 33015G25KT
12:30
V
11 °C 10 km+ 4.400 ft 340° 340° 11 kt METAR LFBG 261130Z AUTO 34011KT 9999 FEW021 SCT029 BKN044 11/07 Q0995 TEMPO 2000 SHRA BKN010 BKN020CB BECMG 33015G25KT
12:00
V
12 °C 10 km+ - 320° 320° 7 kt METAR LFBG 261100Z AUTO 32007KT 9999 FEW016/// SCT033/// //////TCU 12/08 Q0995 TEMPO 2000 SHRA BKN010 BKN020CB BECMG 33015G25KT
11:30
M
12 °C 10 km+ 1.600 ft 300° 300° 9 kt METAR LFBG 261030Z AUTO 30009KT 9999 BKN016 BKN021 BKN038 12/09 Q0994 TEMPO 2000 SHRA BKN010 BKN020CB BECMG 33015G25KT
11:00
M
11 °C 10 km+ 1.200 ft 310° 310° 7 kt METAR LFBG 261000Z AUTO 31007KT 270V350 9999 BKN012 OVC018 11/08 Q0994 TEMPO 2000 SHRA BKN010 BKN020CB BECMG 33015G25KT
10:30
M
10 °C 10 km+ 1.000 ft 280° 280° 9 kt METAR LFBG 260930Z AUTO 28009KT 9999 BKN010 BKN025 BKN035 10/08 Q0994 TEMPO 2000 SHRA SCT010 BKN020CB BECMG 33015G25KT
10:00
V
10 °C 10 km+ 3.700 ft 250° 250° 10 kt METAR LFBG 260900Z AUTO 25010KT 9999 FEW018/// SCT031/// BKN037/// //////TCU 10/09 Q0993 TEMPO 2000 SHRA SCT010 BKN020CB BECMG 33015G25KT
09:30
M
10 °C 10 km+ 2.400 ft 240° 240° 8 kt METAR LFBG 260830Z AUTO 24008KT 9999 SCT015/// BKN024/// BKN030/// //////TCU 10/09 Q0993 TEMPO 3000 SHRA SCT010 BKN020CB BECMG 33015G25KT
09:00
V
10 °C 10 km+ 10.000 ft 230° 230° 8 kt METAR LFBG 260800Z AUTO 23008KT 9999 FEW014/// SCT082/// BKN100/// //////TCU 10/09 Q0992 TEMPO 4000 -SHRA
08:30
V
9 °C 10 km+ 4.300 ft 230° 230° 9 kt METAR LFBG 260730Z AUTO 23009KT 9999 FEW017/// SCT024/// BKN043/// //////TCU 09/08 Q0992 TEMPO 4000 -SHRA
08:00
M
9 °C 10 km+ 2.800 ft 220° 220° 9 kt METAR LFBG 260700Z AUTO 22009KT 9999 FEW015/// SCT022/// BKN028/// ///TCU 09/08 Q0992 TEMPO 4000 -SHRA
07:30
V
9 °C 10 km+ 3.700 ft 210° 210° 8 kt METAR LFBG 260630Z AUTO 21008KT 9999 FEW022/// BKN037/// BKN043/// //////TCU 09/08 Q0991 TEMPO 4000 -SHRA
07:00
V
10 °C 10 km+ 3.100 ft 230° 230° 8 kt METAR LFBG 260600Z AUTO 23008KT 9999 FEW014/// BKN031/// BKN038/// //////TCU 10/08 Q0991
06:30
V
9 °C 10 km+ 4.100 ft 230° 230° 10 kt METAR LFBG 260530Z AUTO 23010KT 9999 FEW033/// BKN041/// ///TCU 09/08 Q0991
06:00
M
10 °C 10 km+ 1.800 ft 230° 230° 10 kt METAR LFBG 260500Z AUTO 23010KT 9999 BKN018/// BKN025/// OVC043/// //////TCU 10/08 Q0990
05:30
M
10 °C 10 km+ 1.400 ft 240° 240° 12 kt METAR LFBG 260430Z AUTO 24012KT 9999 -RA BKN014/// OVC020/// ///TCU 10/09 Q0990
05:00
I
10 °C 4,7 km 1.400 ft 240° 240° 13 kt METAR LFBG 260400Z AUTO 24013KT 4700 RA BR SCT009/// BKN014/// BKN021/// //////CB 10/09 Q0990
04:30
M
10 °C 10 km+ 1.700 ft 220° 220° 15 kt METAR LFBG 260330Z AUTO 22015KT 9999 FEW012/// BKN017/// BKN022/// //////CB 10/09 Q0990
04:00
M
10 °C 7 km 1.300 ft 240° 240° 7 kt METAR LFBG 260300Z AUTO 24007KT 210V270 7000 -RA BKN013/// BKN019/// OVC024/// //////TCU 10/09 Q0990
03:30
M
10 °C 7 km 2.200 ft 220° 220° 14 kt METAR LFBG 260230Z AUTO 22014KT 7000 -RA SCT016/// BKN022/// BKN027/// //////TCU 10/09 Q0990
03:00
V
11 °C 10 km+ 3.300 ft 220° 220° 18 kt METAR LFBG 260200Z AUTO 22018KT 9999 -DZ FEW008/// SCT019/// BKN033/// ///TCU 11/09 Q0990
02:30
M
11 °C 10 km+ 2.900 ft 210° 210° 17 kt METAR LFBG 260130Z AUTO 21017KT 9999 SCT017/// BKN029/// BKN066/// ///CB 11/09 Q0990
02:00
M
11 °C 10 km+ 1.900 ft 210° 210° 13 kt METAR LFBG 260100Z AUTO 21013KT 9999 FEW014/// BKN019/// BKN026/// ///CB 11/09 Q0990
01:30
M
11 °C 10 km+ 2.100 ft 220° 220° 15 kt METAR LFBG 260030Z AUTO 22015KT 9999 SCT015/// BKN021/// OVC031/// ///CB 11/09 Q0991
01:00
M
10 °C 10 km+ 2.400 ft 230° 230° 12 kt METAR LFBG 260000Z AUTO 23012KT 9999 FEW019/// BKN024/// BKN039/// //////CB 10/09 Q0991
00:30
M
11 °C 10 km+ 2.300 ft 210° 210° 19 kt METAR LFBG 252330Z AUTO 21019KT 9999 FEW014/// BKN023/// BKN042/// //////CB 11/09 Q0991
00:00
M
11 °C 10 km+ 3.000 ft 210° 210° 16 kt METAR LFBG 252300Z AUTO 21016KT 9999 SCT020/// BKN030/// BKN037/// //////CB 11/09 Q0991

2024年2月25日

时间 代码 天气 温度 能见度 天花板 METAR/SPECI
23:30
V
10 °C 10 km+ 3.500 ft 210° 210° 13 kt METAR LFBG 252230Z AUTO 21013KT 9999 FEW017/// SCT029/// BKN035/// //////CB 10/08 Q0992
23:00
V
11 °C 10 km+ 4.100 ft 230° 230° 16 kt METAR LFBG 252200Z AUTO 23016KT 9999 FEW024/// BKN041/// BKN060/// //////CB 11/08 Q0992
22:30
V
11 °C 10 km+ 10.000 ft 220° 220° 14 kt METAR LFBG 252130Z AUTO 22014KT 9999 FEW021/// SCT058/// BKN100/// //////TCU 11/08 Q0992
22:00
M
11 °C 10 km+ 2.300 ft 220° 220° 14 kt METAR LFBG 252100Z AUTO 22014KT 9999 OVC023 11/09 Q0992
21:30
V
11 °C 10 km+ - 230° 230° 13 kt METAR LFBG 252030Z AUTO 23013KT 9999 FEW019 SCT088 11/09 Q0992
21:00
V
11 °C 10 km+ - 240° 240° 14 kt METAR LFBG 252000Z AUTO 24014KT 9999 FEW015 11/08 Q0992
20:30
V
11 °C 10 km+ 6.200 ft 230° 230° 16 kt METAR LFBG 251930Z AUTO 23016KT 9999 FEW022 SCT052 BKN062 11/09 Q0992
20:00
M
12 °C 10 km+ 1.900 ft 240° 240° 13 kt METAR LFBG 251900Z AUTO 24013KT 9999 BKN019/// BKN024/// BKN042/// //////TCU 12/10 Q0992
19:30
V
12 °C 10 km+ 4.600 ft 220° 220° 16 kt METAR LFBG 251830Z AUTO 22016KT 9999 FEW020 BKN046 OVC054 12/10 Q0991
19:00
M
12 °C 6 km 1.200 ft 210° 210° 20 kt METAR LFBG 251800Z AUTO 21020KT 6000 -RADZ BKN012/// BKN036/// BKN045/// //////CB 12/11 Q0992
18:30
M
13 °C 10 km+ 1.400 ft 210° 210° 16 kt METAR LFBG 251730Z AUTO 21016KT 9999 BKN014 BKN056 BKN068 13/11 Q0991
18:00
M
13 °C 10 km+ 1.400 ft 220° 220° 17 kt METAR LFBG 251700Z AUTO 22017KT 9999 OVC014 13/11 Q0991
17:30
M
13 °C 10 km+ 1.600 ft 220° 220° 17 kt METAR LFBG 251630Z AUTO 22017KT 9999 BKN016 OVC052 13/11 Q0992
17:00
M
13 °C 10 km+ 1.600 ft 230° 230° 14 kt METAR LFBG 251600Z AUTO 23014KT 9999 BKN016 OVC060 13/11 Q0992
16:30
M
14 °C 10 km+ 1.400 ft 240° 240° 12 kt METAR LFBG 251530Z AUTO 24012KT 9999 BKN014 BKN068 OVC200 14/12 Q0992
16:00
M
14 °C 10 km+ 1.300 ft 240° 240° 13 kt METAR LFBG 251500Z AUTO 24013KT 9999 BKN013 OVC020 14/12 Q0992
15:30
M
14 °C 10 km+ 1.200 ft 240° 240° 14 kt METAR LFBG 251430Z AUTO 24014KT 9999 FEW007 BKN012 BKN021 14/12 Q0992
15:00
I
13 °C 9 km 800 ft 240° 240° 16 kt METAR LFBG 251400Z AUTO 24016KT 9000 BKN008 OVC013 13/13 Q0992
14:30
I
13 °C 7 km 700 ft 230° 230° 18 kt METAR LFBG 251330Z AUTO 23018KT 7000 OVC007 13/13 Q0992
14:00
I
13 °C 10 km+ 600 ft 220° 220° 18 kt METAR LFBG 251300Z AUTO 22018KT 9999 OVC006 13/13 Q0993
13:30
I
10 °C 2,2 km 600 ft 180° 180° 17 kt METAR LFBG 251230Z AUTO 18017KT 2200 DZ BR BKN006 OVC010 10/10 Q0993
13:00
I
9 °C 2,7 km 800 ft 170° 170° 18 kt METAR LFBG 251200Z AUTO 17018KT 2700 -RA BR BKN008 OVC014 09/08 Q0993
12:30
I
8 °C 2,9 km 900 ft 160° 160° 23 kt METAR LFBG 251130Z AUTO 16023KT 2900 -RA BR BKN009/// BKN015/// BKN021/// //////TCU 08/07 Q0994
12:00
I
8 °C 8 km 800 ft 150° 150° 20 kt METAR LFBG 251100Z AUTO 15020KT 8000 -RA OVC008/// //////TCU 08/07 Q0995
11:30
M
8 °C 10 km+ 1.000 ft 160° 160° 18 kt METAR LFBG 251030Z AUTO 16018KT 9999 -RA BKN010/// OVC016/// //////TCU 08/08 Q0996
11:00
M
8 °C 10 km+ 1.000 ft 160° 160° 20 kt METAR LFBG 251000Z AUTO 16020KT 9999 -RA OVC010/// //////TCU 08/08 Q0996
10:30
I
8 °C 10 km+ 800 ft 170° 170° 17 kt METAR LFBG 250930Z AUTO 17017KT 9999 -RADZ OVC008 08/07 Q0997
10:00
I
8 °C 4,9 km 700 ft 170° 170° 19 kt METAR LFBG 250900Z AUTO 17019KT 4900 BR OVC007 08/07 Q0997
09:30
I
8 °C 4,1 km 700 ft 160° 160° 19 kt METAR LFBG 250830Z AUTO 16019KT 4100 -RA BR BKN007/// BKN014/// BKN026/// //////TCU 08/07 Q0998
09:00
I
7 °C 5 km 800 ft 160° 160° 21 kt METAR LFBG 250800Z AUTO 16021KT 5000 -RADZ BR BKN008 BKN014 BKN030 07/07 Q0998
08:30
I
7 °C 8 km 800 ft 160° 160° 19 kt METAR LFBG 250730Z AUTO 16019KT 8000 BKN008 OVC014 07/07 Q0999
08:00
I
7 °C 10 km+ 700 ft 160° 160° 18 kt METAR LFBG 250700Z AUTO 16018KT 9999 BKN007 OVC024 07/07 Q0999
07:30
I
7 °C 7 km 800 ft 160° 160° 16 kt METAR LFBG 250630Z AUTO 16016KT 7000 BKN008 OVC012 07/07 Q1000
07:00
M
7 °C 10 km+ 1.300 ft 160° 160° 16 kt METAR LFBG 250600Z AUTO 16016KT 9999 BKN013 OVC018 07/06 Q1001